createdAt,value
2022-10-26T00:01:17.497Z,98120.41
2022-10-26T00:03:49.017Z,98117.63
2022-10-26T00:06:20.820Z,98115.56
2022-10-26T00:08:48.040Z,98088.53
2022-10-26T00:11:17.463Z,98108.84
2022-10-26T00:13:44.757Z,98116.25
2022-10-26T00:16:17.463Z,98116.00
2022-10-26T00:18:44.936Z,98099.31
2022-10-26T00:21:12.273Z,98099.31
2022-10-26T00:23:39.379Z,98089.81
2022-10-26T00:26:06.948Z,98039.06
2022-10-26T00:28:34.127Z,98100.25
2022-10-26T00:31:02.830Z,98103.63
2022-10-26T00:33:30.421Z,98108.13
2022-10-26T00:35:57.159Z,98027.34
2022-10-26T00:38:24.032Z,98051.72
2022-10-26T00:40:50.818Z,98113.72
2022-10-26T00:43:20.357Z,98109.50
2022-10-26T00:45:54.069Z,98077.13
2022-10-26T00:48:28.642Z,98114.97
2022-10-26T00:50:58.867Z,98067.50
2022-10-26T00:53:25.960Z,98002.75
2022-10-26T00:55:54.331Z,97957.16
2022-10-26T00:58:22.213Z,98063.22
2022-10-26T01:00:49.808Z,98101.28
2022-10-26T01:03:17.625Z,98090.13
2022-10-26T01:05:47.571Z,98077.84
2022-10-26T01:08:18.016Z,98094.66
2022-10-26T01:10:45.696Z,98086.84
2022-10-26T01:13:17.485Z,98076.88
2022-10-26T01:15:55.469Z,97997.88
2022-10-26T01:18:45.222Z,98077.72
2022-10-26T01:21:39.821Z,98076.88
2022-10-26T01:24:46.533Z,98070.81
2022-10-26T01:27:28.414Z,98050.16
2022-10-26T01:30:01.122Z,98067.13
2022-10-26T01:32:32.536Z,98057.84
2022-10-26T01:35:09.018Z,98079.06
2022-10-26T01:37:41.661Z,98074.41
2022-10-26T01:40:17.638Z,98076.53
2022-10-26T01:42:49.416Z,98036.25
2022-10-26T01:45:16.533Z,98041.94
2022-10-26T01:47:44.617Z,98033.34
2022-10-26T01:50:11.869Z,98043.31
2022-10-26T01:52:38.685Z,98032.94
2022-10-26T01:55:50.808Z,98058.53
2022-10-26T01:58:50.962Z,98066.97
2022-10-26T02:01:39.314Z,98062.03
2022-10-26T02:04:16.806Z,98060.84
2022-10-26T02:07:15.568Z,98055.59
2022-10-26T02:09:52.281Z,98054.09
2022-10-26T02:12:49.124Z,98057.78
2022-10-26T02:15:23.083Z,98063.47
2022-10-26T02:18:21.619Z,98061.06
2022-10-26T02:20:53.720Z,98057.66
2022-10-26T02:23:24.552Z,98069.28
2022-10-26T02:26:00.418Z,98008.50
2022-10-26T02:28:34.280Z,98061.63
2022-10-26T02:31:03.702Z,98064.38
2022-10-26T02:33:34.894Z,98072.16
2022-10-26T02:36:04.589Z,98021.72
2022-10-26T02:38:34.318Z,98031.34
2022-10-26T02:41:04.413Z,98088.66
2022-10-26T02:43:36.652Z,98077.41
2022-10-26T02:46:09.093Z,98002.38
2022-10-26T02:48:36.425Z,97997.63
2022-10-26T02:51:17.890Z,98090.44
2022-10-26T02:54:04.489Z,98081.88
2022-10-26T02:56:43.767Z,98086.16
2022-10-26T02:59:12.997Z,98091.53
2022-10-26T03:01:41.563Z,98034.19
2022-10-26T03:04:08.399Z,98026.19
2022-10-26T03:06:35.101Z,98069.31
2022-10-26T03:09:03.262Z,98065.75
2022-10-26T03:11:30.968Z,98048.34
2022-10-26T03:13:58.363Z,98053.06
2022-10-26T03:16:25.184Z,98089.16
2022-10-26T03:18:53.017Z,98075.00
2022-10-26T03:21:19.474Z,98049.72
2022-10-26T03:23:47.810Z,98079.75
2022-10-26T03:26:14.516Z,98079.56
2022-10-26T03:28:40.959Z,98017.47
2022-10-26T03:31:08.719Z,98040.69
2022-10-26T03:33:35.274Z,98038.59
2022-10-26T03:36:01.829Z,98044.50
2022-10-26T03:38:28.404Z,98049.47
2022-10-26T03:40:55.982Z,98064.94
2022-10-26T03:43:22.635Z,98042.09
2022-10-26T03:45:50.900Z,97957.72
2022-10-26T03:48:17.721Z,98056.59
2022-10-26T03:50:44.914Z,98053.47
2022-10-26T03:53:11.433Z,97869.72
2022-10-26T03:55:37.937Z,98053.13
2022-10-26T03:58:05.097Z,98039.53
2022-10-26T04:00:31.873Z,97994.97
2022-10-26T04:03:00.143Z,98033.88
2022-10-26T04:05:29.777Z,98028.03
2022-10-26T04:07:58.230Z,98017.63
2022-10-26T04:10:26.719Z,98033.72
2022-10-26T04:12:54.716Z,98031.97
2022-10-26T04:15:22.105Z,98035.69
2022-10-26T04:17:55.460Z,98042.22
2022-10-26T04:20:21.984Z,98021.19
2022-10-26T04:22:48.533Z,98009.22
2022-10-26T04:25:15.178Z,98031.16
2022-10-26T04:27:41.720Z,97991.72
2022-10-26T04:30:09.997Z,98041.38
2022-10-26T04:32:36.702Z,98049.63
2022-10-26T04:35:03.383Z,97965.53
2022-10-26T04:37:30.359Z,97990.94
2022-10-26T04:39:56.878Z,98045.06
2022-10-26T04:42:25.044Z,98044.16
2022-10-26T04:44:51.752Z,97972.69
2022-10-26T04:47:18.342Z,98032.09
2022-10-26T04:49:45.386Z,97968.41
2022-10-26T04:52:12.105Z,98018.38
2022-10-26T04:54:38.609Z,98033.22
2022-10-26T04:57:06.468Z,98012.44
2022-10-26T04:59:33.008Z,98014.66
2022-10-26T05:02:04.743Z,98046.00
2022-10-26T05:04:32.918Z,97992.63
2022-10-26T05:06:59.598Z,98032.06
2022-10-26T05:09:26.408Z,98013.63
2022-10-26T05:11:53.334Z,98059.25
2022-10-26T05:14:20.305Z,98023.41
2022-10-26T05:16:49.289Z,98059.03
2022-10-26T05:19:16.686Z,98058.44
2022-10-26T05:21:43.157Z,98030.69
2022-10-26T05:24:12.389Z,98061.81
2022-10-26T05:26:39.678Z,98054.97
2022-10-26T05:29:06.310Z,98076.22
2022-10-26T05:31:33.073Z,98047.19
2022-10-26T05:34:00.165Z,98039.66
2022-10-26T05:36:29.776Z,98005.06
2022-10-26T05:39:00.105Z,98081.44
2022-10-26T05:41:27.502Z,98018.53
2022-10-26T05:43:54.023Z,98081.78
2022-10-26T05:46:21.264Z,98055.69
2022-10-26T05:48:48.628Z,98094.88
2022-10-26T05:51:16.245Z,98070.50
2022-10-26T05:53:42.844Z,98015.97
2022-10-26T05:56:21.237Z,98086.75
2022-10-26T05:58:48.533Z,98081.41
2022-10-26T06:01:51.347Z,98116.66
2022-10-26T06:04:48.470Z,98071.38
2022-10-26T06:07:20.264Z,98098.31
2022-10-26T06:09:49.347Z,98108.41
2022-10-26T06:12:19.318Z,98107.81
2022-10-26T06:14:46.893Z,98099.44
2022-10-26T06:17:32.873Z,98115.47
2022-10-26T06:20:38.592Z,98122.69
2022-10-26T06:23:17.666Z,98138.31
2022-10-26T06:26:01.221Z,98136.28
2022-10-26T06:28:49.954Z,98145.00
2022-10-26T06:31:18.119Z,98105.03
2022-10-26T06:33:46.035Z,98079.25
2022-10-26T06:36:27.121Z,98155.94
2022-10-26T06:39:07.191Z,98152.06
2022-10-26T06:41:36.629Z,98117.50
2022-10-26T06:44:05.071Z,98113.75
2022-10-26T06:46:47.437Z,98126.50
2022-10-26T06:49:41.458Z,98168.84
2022-10-26T06:52:33.344Z,98167.91
2022-10-26T06:55:00.764Z,98115.78
2022-10-26T06:57:35.498Z,98165.63
2022-10-26T07:00:20.004Z,98181.66
2022-10-26T07:02:46.944Z,98167.56
2022-10-26T07:05:16.385Z,98176.03
2022-10-26T07:07:45.399Z,98186.56
2022-10-26T07:10:14.329Z,98183.97
2022-10-26T07:12:42.056Z,98173.63
2022-10-26T07:17:48.103Z,98177.78
2022-10-26T07:20:16.930Z,98199.69
2022-10-26T07:22:43.703Z,98158.03
2022-10-26T07:25:12.508Z,98200.75
2022-10-26T07:27:39.182Z,98192.78
2022-10-26T07:30:06.721Z,98197.91
2022-10-26T07:32:35.594Z,98206.28
2022-10-26T07:35:02.256Z,98145.13
2022-10-26T07:37:29.264Z,98173.41
2022-10-26T07:39:56.009Z,98188.81
2022-10-26T07:42:22.713Z,98223.09
2022-10-26T07:44:49.353Z,98217.72
2022-10-26T07:47:16.097Z,98126.53
2022-10-26T07:49:42.627Z,98166.16
2022-10-26T07:52:11.215Z,98120.19
2022-10-26T07:54:37.969Z,98221.72
2022-10-26T07:59:37.436Z,98229.72
2022-10-26T08:02:04.085Z,98206.34
2022-10-26T08:04:30.765Z,98245.34
2022-10-26T08:06:57.300Z,98222.00
2022-10-26T08:09:23.911Z,98211.41
2022-10-26T08:11:50.413Z,98233.31
2022-10-26T08:14:16.890Z,98241.34
2022-10-26T08:16:43.473Z,98221.69
2022-10-26T08:19:10.027Z,98254.34
2022-10-26T08:21:40.108Z,98212.28
2022-10-26T08:24:07.389Z,98213.31
2022-10-26T08:26:35.899Z,98255.13
2022-10-26T08:29:02.681Z,98236.47
2022-10-26T08:31:29.185Z,98216.97
2022-10-26T08:33:57.918Z,98224.44
2022-10-26T08:36:26.539Z,98254.03
2022-10-26T08:38:53.463Z,98261.75
2022-10-26T08:41:31.158Z,98184.94
2022-10-26T08:44:05.324Z,98222.38
2022-10-26T08:46:41.082Z,98236.41
2022-10-26T08:49:20.350Z,98271.91
2022-10-26T08:51:50.817Z,98221.63
2022-10-26T08:54:28.703Z,98212.03
2022-10-26T08:57:05.181Z,98285.56
2022-10-26T08:59:50.929Z,98267.91
2022-10-26T09:02:18.451Z,98278.88
2022-10-26T09:04:45.529Z,98252.66
2022-10-26T09:07:37.457Z,98293.78
2022-10-26T09:10:16.481Z,98290.94
2022-10-26T09:12:53.453Z,98292.72
2022-10-26T09:15:32.185Z,98246.78
2022-10-26T09:18:06.418Z,98289.78
2022-10-26T09:21:01.990Z,98291.25
2022-10-26T09:23:48.987Z,98278.94
2022-10-26T09:26:29.140Z,98307.63
2022-10-26T09:29:01.773Z,98304.91
2022-10-26T09:31:30.116Z,98264.13
2022-10-26T09:33:57.533Z,98288.38
2022-10-26T09:36:26.431Z,98304.56
2022-10-26T09:38:59.041Z,98318.28
2022-10-26T09:41:41.053Z,98313.78
2022-10-26T09:44:27.363Z,98335.91
2022-10-26T09:47:28.975Z,98327.69
2022-10-26T09:50:25.049Z,98323.97
2022-10-26T09:52:51.979Z,98341.28
2022-10-26T09:55:21.449Z,98290.78
2022-10-26T09:57:52.844Z,98287.81
2022-10-26T10:00:22.210Z,98328.28
2022-10-26T10:02:54.721Z,98342.84
2022-10-26T10:05:50.170Z,98364.41
2022-10-26T10:08:20.143Z,98373.06
2022-10-26T10:10:56.478Z,98379.81
2022-10-26T10:13:25.882Z,98368.22
2022-10-26T10:15:54.873Z,98362.84
2022-10-26T10:18:23.895Z,98375.81
2022-10-26T10:20:58.601Z,98382.31
2022-10-26T10:23:35.557Z,98380.69
2022-10-26T10:26:12.593Z,98385.56
2022-10-26T10:28:42.492Z,98406.06
2022-10-26T10:31:21.622Z,98390.97
2022-10-26T10:33:49.557Z,98390.97
2022-10-26T10:36:19.961Z,98413.94
2022-10-26T10:38:49.584Z,98406.88
2022-10-26T10:41:21.592Z,98416.63
2022-10-26T10:43:59.796Z,98418.50
2022-10-26T10:46:27.903Z,98369.09
2022-10-26T10:49:02.726Z,98401.50
2022-10-26T10:51:35.725Z,98428.78
2022-10-26T10:54:03.679Z,98415.28
2022-10-26T10:56:35.657Z,98419.03
2022-10-26T10:59:27.177Z,98430.66
2022-10-26T11:02:19.324Z,98425.00
2022-10-26T11:05:22.109Z,98432.00
2022-10-26T11:08:10.077Z,98442.25
2022-10-26T11:10:46.126Z,98437.41
2022-10-26T11:13:25.805Z,98442.53
2022-10-26T11:15:59.619Z,98403.88
2022-10-26T11:18:54.264Z,98423.38
2022-10-26T11:21:31.215Z,98408.53
2022-10-26T11:24:23.361Z,98398.78
2022-10-26T11:27:26.845Z,98422.28
2022-10-26T11:30:19.997Z,98428.25
2022-10-26T11:33:01.957Z,98420.66
2022-10-26T11:35:31.270Z,98423.63
2022-10-26T11:38:10.793Z,98418.50
2022-10-26T11:41:09.575Z,98431.16
2022-10-26T11:43:45.200Z,98428.47
2022-10-26T11:46:28.455Z,98421.69
2022-10-26T11:49:11.747Z,98407.94
2022-10-26T11:51:50.885Z,98427.94
2022-10-26T11:54:28.573Z,98436.31
2022-10-26T11:56:56.989Z,98428.75
2022-10-26T11:59:33.073Z,98370.41
2022-10-26T12:02:29.177Z,98427.44
2022-10-26T12:05:03.282Z,98391.47
2022-10-26T12:07:38.035Z,98412.00
2022-10-26T12:10:10.594Z,98411.44
2022-10-26T12:12:51.081Z,98438.75
2022-10-26T12:16:02.389Z,98441.72
2022-10-26T12:18:55.463Z,98449.84
2022-10-26T12:21:28.010Z,98432.56
2022-10-26T12:24:35.154Z,98442.81
2022-10-26T12:27:04.446Z,98433.34
2022-10-26T12:29:50.023Z,98422.56
2022-10-26T12:32:28.744Z,98453.09
2022-10-26T12:34:55.776Z,98454.97
2022-10-26T12:37:29.498Z,98439.03
2022-10-26T12:40:31.059Z,98447.94
2022-10-26T12:43:18.597Z,98445.00
2022-10-26T12:45:47.938Z,98446.06
2022-10-26T12:48:39.732Z,98446.06
2022-10-26T12:51:22.114Z,98451.44
2022-10-26T12:53:58.269Z,98453.63
2022-10-26T12:56:35.845Z,98453.63
2022-10-26T12:59:21.933Z,98450.09
2022-10-26T13:02:03.075Z,98445.50
2022-10-26T13:04:29.682Z,98463.03
2022-10-26T13:07:16.789Z,98470.63
2022-10-26T13:09:51.561Z,98473.56
2022-10-26T13:12:19.557Z,98450.63
2022-10-26T13:14:59.645Z,98444.44
2022-10-26T13:17:32.038Z,98478.72
2022-10-26T13:20:05.726Z,98376.09
2022-10-26T13:22:50.393Z,98457.66
2022-10-26T13:26:01.750Z,98431.47
2022-10-26T13:28:44.139Z,98480.88
2022-10-26T13:31:33.424Z,98484.91
2022-10-26T13:34:03.565Z,98488.69
2022-10-26T13:36:36.877Z,98489.78
2022-10-26T13:39:13.570Z,98473.56
2022-10-26T13:41:46.226Z,98451.72
2022-10-26T13:44:44.900Z,98493.56
2022-10-26T13:47:17.925Z,98481.13
2022-10-26T13:49:47.880Z,98446.03
2022-10-26T13:52:32.821Z,98486.56
2022-10-26T13:55:45.726Z,98506.00
2022-10-26T13:58:16.563Z,98510.34
2022-10-26T14:01:11.804Z,98506.59
2022-10-26T14:03:39.565Z,98514.41
2022-10-26T14:06:16.893Z,98485.78
2022-10-26T14:08:46.818Z,98515.50
2022-10-26T14:11:17.299Z,98496.59
2022-10-26T14:13:44.094Z,98498.75
2022-10-26T14:16:14.189Z,98519.84
2022-10-26T14:18:44.041Z,98509.31
2022-10-26T14:21:16.810Z,98507.69
2022-10-26T14:23:56.008Z,98525.53
2022-10-26T14:26:28.722Z,98522.56
2022-10-26T14:29:01.143Z,98444.44
2022-10-26T14:31:33.421Z,98545.00
2022-10-26T14:34:04.115Z,98494.97
2022-10-26T14:36:39.488Z,98489.81
2022-10-26T14:39:28.815Z,98542.84
2022-10-26T14:41:56.103Z,98544.69
2022-10-26T14:44:24.579Z,98464.41
2022-10-26T14:46:51.850Z,98509.28
2022-10-26T14:49:25.001Z,98479.56
2022-10-26T14:52:06.225Z,98554.16
2022-10-26T14:54:34.132Z,98548.72
2022-10-26T14:57:08.556Z,98524.41
2022-10-26T14:59:35.865Z,98496.56
2022-10-26T15:02:17.223Z,98500.88
2022-10-26T15:04:59.126Z,98543.84
2022-10-26T15:07:36.071Z,98556.59
2022-10-26T15:10:03.776Z,98526.53
2022-10-26T15:12:36.317Z,98566.03
2022-10-26T15:15:14.972Z,98570.88
2022-10-26T15:17:48.466Z,98572.22
2022-10-26T15:20:19.519Z,98558.94
2022-10-26T15:22:55.822Z,98569.72
2022-10-26T15:25:29.112Z,98585.41
2022-10-26T15:28:10.064Z,98588.06
2022-10-26T15:30:36.741Z,98560.47
2022-10-26T15:33:22.266Z,98583.72
2022-10-26T15:35:48.946Z,98527.41
2022-10-26T15:38:15.482Z,98540.34
2022-10-26T15:40:44.023Z,98586.94
2022-10-26T15:43:12.401Z,98586.84
2022-10-26T15:45:52.050Z,98581.69
2022-10-26T15:48:21.522Z,98497.72
2022-10-26T15:50:48.103Z,98588.69
2022-10-26T15:53:23.563Z,98582.16
2022-10-26T15:55:52.517Z,98562.94
2022-10-26T15:58:19.172Z,98549.13
2022-10-26T16:00:46.222Z,98601.91
2022-10-26T16:03:24.719Z,98598.09
2022-10-26T16:05:57.486Z,98563.94
2022-10-26T16:08:26.393Z,98596.63
2022-10-26T16:10:53.025Z,98597.19
2022-10-26T16:13:19.733Z,98614.72
2022-10-26T16:15:46.494Z,98571.09
2022-10-26T16:18:13.564Z,98590.78
2022-10-26T16:20:40.651Z,98564.94
2022-10-26T16:23:08.894Z,98555.44
2022-10-26T16:25:46.484Z,98624.28
2022-10-26T16:28:15.891Z,98596.81
2022-10-26T16:30:43.557Z,98593.19
2022-10-26T16:33:10.225Z,98635.75
2022-10-26T16:35:36.761Z,98623.97
2022-10-26T16:38:03.342Z,98554.81
2022-10-26T16:40:30.009Z,98607.06
2022-10-26T16:42:56.666Z,98591.78
2022-10-26T16:45:24.753Z,98644.56
2022-10-26T16:47:51.569Z,98562.56
2022-10-26T16:50:21.266Z,98597.09
2022-10-26T16:52:47.890Z,98627.00
2022-10-26T16:55:14.428Z,98623.88
2022-10-26T16:57:41.064Z,98666.69
2022-10-26T17:00:08.211Z,98646.59
2022-10-26T17:02:35.533Z,98577.38
2022-10-26T17:05:05.908Z,98660.50
2022-10-26T17:07:35.727Z,98689.41
2022-10-26T17:10:02.497Z,98649.50
2022-10-26T17:12:30.533Z,98657.28
2022-10-26T17:14:59.203Z,98673.09
2022-10-26T17:17:26.629Z,98695.31
2022-10-26T17:19:54.320Z,98663.22
2022-10-26T17:22:20.839Z,98666.00
2022-10-26T17:24:47.343Z,98681.34
2022-10-26T17:27:17.069Z,98721.09
2022-10-26T17:29:43.550Z,98719.25
2022-10-26T17:32:10.285Z,98724.34
2022-10-26T17:34:38.277Z,98707.75
2022-10-26T17:37:04.823Z,98637.81
2022-10-26T17:39:31.362Z,98720.75
2022-10-26T17:41:57.899Z,98675.09
2022-10-26T17:44:24.552Z,98742.91
2022-10-26T17:46:51.150Z,98698.31
2022-10-26T17:49:17.849Z,98750.19
2022-10-26T17:51:44.466Z,98665.13
2022-10-26T17:54:11.159Z,98718.59
2022-10-26T17:56:37.838Z,98696.94
2022-10-26T17:59:06.345Z,98753.00
2022-10-26T18:01:33.231Z,98770.44
2022-10-26T18:04:01.675Z,98700.25
2022-10-26T18:06:28.512Z,98777.22
2022-10-26T18:08:57.554Z,98778.41
2022-10-26T18:11:27.191Z,98757.16
2022-10-26T18:13:56.417Z,98788.06
2022-10-26T18:16:24.547Z,98692.31
2022-10-26T18:19:01.562Z,98724.75
2022-10-26T18:21:31.823Z,98751.69
2022-10-26T18:23:58.543Z,98779.81
2022-10-26T18:26:28.550Z,98791.09
2022-10-26T18:28:56.544Z,98795.63
2022-10-26T18:31:25.251Z,98811.66
2022-10-26T18:34:03.188Z,98805.72
2022-10-26T18:36:30.509Z,98771.97
2022-10-26T18:38:57.730Z,98794.47
2022-10-26T18:41:25.645Z,98791.44
2022-10-26T18:43:54.918Z,98818.38
2022-10-26T18:46:24.751Z,98739.91
2022-10-26T18:48:52.157Z,98809.66
2022-10-26T18:51:25.400Z,98816.75
2022-10-26T18:53:52.349Z,98797.38
2022-10-26T18:56:21.360Z,98836.59
2022-10-26T18:58:51.686Z,98823.75
2022-10-26T19:01:21.714Z,98829.78
2022-10-26T19:03:54.041Z,98788.50
2022-10-26T19:06:24.847Z,98817.09
2022-10-26T19:08:52.055Z,98740.56
2022-10-26T19:11:20.485Z,98835.91
2022-10-26T19:13:47.332Z,98809.16
2022-10-26T19:16:33.611Z,98837.09
2022-10-26T19:19:11.449Z,98844.97
2022-10-26T19:21:38.697Z,98817.69
2022-10-26T19:24:11.104Z,98831.69
2022-10-26T19:26:41.095Z,98808.44
2022-10-26T19:29:15.850Z,98843.94
2022-10-26T19:31:45.906Z,98823.06
2022-10-26T19:34:14.779Z,98847.16
2022-10-26T19:36:44.836Z,98830.19
2022-10-26T19:39:12.852Z,98844.94
2022-10-26T19:41:39.548Z,98828.66
2022-10-26T19:44:09.859Z,98852.75
2022-10-26T19:46:36.806Z,98837.19
2022-10-26T19:49:03.677Z,98825.34
2022-10-26T19:51:31.910Z,98855.66
2022-10-26T19:54:07.029Z,98782.44
2022-10-26T19:56:36.837Z,98860.81
2022-10-26T19:59:04.389Z,98784.84
2022-10-26T20:01:31.510Z,98863.50
2022-10-26T20:03:58.261Z,98864.47
2022-10-26T20:06:24.883Z,98776.28
2022-10-26T20:08:51.884Z,98870.63
2022-10-26T20:11:19.021Z,98831.19
2022-10-26T20:13:48.291Z,98878.91
2022-10-26T20:16:16.685Z,98858.94
2022-10-26T20:18:48.037Z,98832.84
2022-10-26T20:21:16.441Z,98871.75
2022-10-26T20:23:43.994Z,98878.72
2022-10-26T20:26:18.938Z,98807.41
2022-10-26T20:28:51.572Z,98835.38
2022-10-26T20:31:19.444Z,98880.81
2022-10-26T20:33:51.776Z,98853.00
2022-10-26T20:36:18.687Z,98880.75
2022-10-26T20:38:45.448Z,98891.00
2022-10-26T20:41:12.991Z,98855.94
2022-10-26T20:43:41.312Z,98892.72
2022-10-26T20:46:25.668Z,98889.31
2022-10-26T20:48:53.919Z,98868.69
2022-10-26T20:51:40.003Z,98825.88
2022-10-26T20:54:25.708Z,98915.47
2022-10-26T20:56:55.124Z,98833.69
2022-10-26T21:02:01.905Z,98837.00
2022-10-26T21:04:28.823Z,98902.31
2022-10-26T21:06:56.163Z,98900.00
2022-10-26T21:09:23.578Z,98899.69
2022-10-26T21:11:50.392Z,98858.72
2022-10-26T21:14:16.885Z,98907.94
2022-10-26T21:16:43.349Z,98835.63
2022-10-26T21:19:10.327Z,98886.06
2022-10-26T21:21:39.159Z,98880.06
2022-10-26T21:24:06.008Z,98887.28
2022-10-26T21:26:33.637Z,98899.97
2022-10-26T21:29:00.133Z,98866.19
2022-10-26T21:31:26.679Z,98913.31
2022-10-26T21:33:53.232Z,98862.69
2022-10-26T21:36:19.686Z,98884.06
2022-10-26T21:38:46.554Z,98846.38
2022-10-26T21:41:20.761Z,98909.41
2022-10-26T21:43:59.289Z,98913.50
2022-10-26T21:46:37.156Z,98872.53
2022-10-26T21:49:03.835Z,98909.41
2022-10-26T21:51:30.837Z,98865.19
2022-10-26T21:53:58.833Z,98900.09
2022-10-26T21:56:26.368Z,98865.53
2022-10-26T21:58:54.093Z,98762.91
2022-10-26T22:01:22.336Z,98909.66
2022-10-26T22:03:49.901Z,98921.53
2022-10-26T22:06:21.265Z,98868.78
2022-10-26T22:08:48.390Z,98922.34
2022-10-26T22:11:18.182Z,98914.34
2022-10-26T22:13:46.026Z,98919.94
2022-10-26T22:16:20.861Z,98926.94
2022-10-26T22:18:49.518Z,98918.50
2022-10-26T22:21:17.401Z,98862.19
2022-10-26T22:23:46.394Z,98786.63
2022-10-26T22:26:21.781Z,98899.06
2022-10-26T22:28:51.424Z,98920.84
2022-10-26T22:31:21.400Z,98820.63
2022-10-26T22:33:56.426Z,98917.59
2022-10-26T22:36:26.407Z,98927.03
2022-10-26T22:38:53.882Z,98917.56
2022-10-26T22:41:22.428Z,98892.16
2022-10-26T22:43:51.006Z,98909.19
2022-10-26T22:46:24.353Z,98903.84
2022-10-26T22:48:58.529Z,98921.44
2022-10-26T22:51:27.195Z,98899.56
2022-10-26T22:53:55.740Z,98898.97
2022-10-26T22:58:54.138Z,98874.75
2022-10-26T23:01:32.894Z,98873.63
2022-10-26T23:04:02.962Z,98906.00
2022-10-26T23:06:31.982Z,98898.03
2022-10-26T23:08:59.378Z,98878.75
2022-10-26T23:11:29.756Z,98918.56
2022-10-26T23:14:01.305Z,98923.88
2022-10-26T23:16:29.343Z,98925.13
2022-10-26T23:18:56.324Z,98907.28
2022-10-26T23:23:51.534Z,98925.91
2022-10-26T23:26:21.136Z,98864.22
2022-10-26T23:28:48.405Z,98919.97
2022-10-26T23:31:20.694Z,98922.22
2022-10-26T23:33:49.822Z,98894.94
2022-10-26T23:36:16.356Z,98837.78
2022-10-26T23:38:42.976Z,98928.00
2022-10-26T23:41:12.182Z,98889.63
2022-10-26T23:43:40.319Z,98921.41
2022-10-26T23:46:07.252Z,98881.03
2022-10-26T23:48:33.893Z,98882.47
2022-10-26T23:51:00.429Z,98919.38
2022-10-26T23:53:27.174Z,98932.09
2022-10-26T23:55:53.925Z,98914.06
2022-10-26T23:58:20.578Z,98901.13
